Time,TemperatureF,DewpointF,PressureIn,WindDirection,WindDirectionDegrees,WindSpeedMPH,WindSpeedGustMPH,Humidity,HourlyPrecipIn,Conditions,Clouds,dailyrainin,SoftwareType,DateUTC
2013-03-23 00:05:00,28.5,18.6,29.66,West,270,2.0,3.0,66,0.00,,,-99.99,WeatherLink 5.7,2013-03-23 04:05:00,
2013-03-23 00:10:00,28.4,18.5,29.66,West,270,2.0,5.0,66,0.00,,,-99.99,WeatherLink 5.7,2013-03-23 04:10:00,
2013-03-23 00:16:00,28.2,18.6,29.66,West,270,2.0,6.0,67,0.00,,,-99.99,WeatherLink 5.7,2013-03-23 04:16:00,
2013-03-23 00:25:00,28.1,18.5,29.66,West,270,2.0,5.0,67,0.00,,,-99.99,WeatherLink 5.7,2013-03-23 04:25:00,
2013-03-23 00:31:00,28.1,18.5,29.66,West,270,1.0,5.0,67,0.00,,,-99.99,WeatherLink 5.7,2013-03-23 04:31:00,
2013-03-23 00:40:00,27.9,18.7,29.66,WSW,247,2.0,7.0,68,0.00,,,-99.99,WeatherLink 5.7,2013-03-23 04:40:00,
2013-03-23 00:45:00,27.8,18.6,29.66,West,270,2.0,6.0,68,0.00,,,-99.99,WeatherLink 5.7,2013-03-23 04:45:00,
2013-03-23 00:55:00,27.8,18.6,29.66,WSW,247,3.0,7.0,68,0.00,,,-99.99,WeatherLink 5.7,2013-03-23 04:55:00,
2013-03-23 01:05:00,27.6,18.4,29.67,West,270,2.0,5.0,68,0.00,,,-99.99,WeatherLink 5.7,2013-03-23 05:05:00,
2013-03-23 01:20:00,27.5,18.7,29.67,WSW,247,2.0,5.0,69,0.00,,,-99.99,WeatherLink 5.7,2013-03-23 05:20:00,
2013-03-23 01:25:00,27.3,18.5,29.66,West,270,3.0,7.0,69,0.00,,,-99.99,WeatherLink 5.7,2013-03-23 05:25:00,
2013-03-23 01:35:00,27.2,18.4,29.66,West,270,2.0,5.0,69,0.00,,,-99.99,WeatherLink 5.7,2013-03-23 05:35:00,
2013-03-23 01:45:00,27.0,18.2,29.66,West,270,3.0,6.0,69,0.00,,,-99.99,WeatherLink 5.7,2013-03-23 05:45:00,
2013-03-23 01:55:00,27.0,18.2,29.67,West,270,2.0,4.0,69,0.00,,,-99.99,WeatherLink 5.7,2013-03-23 05:55:00,
2013-03-23 02:05:00,26.7,17.9,29.67,WNW,292,2.0,8.0,69,0.00,,,-99.99,WeatherLink 5.7,2013-03-23 06:05:00,
2013-03-23 02:15:00,26.6,18.1,29.67,WNW,292,2.0,11.0,70,0.00,,,-99.99,WeatherLink 5.7,2013-03-23 06:15:00,
2013-03-23 02:20:00,26.6,18.1,29.66,West,270,2.0,6.0,70,0.00,,,-99.99,WeatherLink 5.7,2013-03-23 06:20:00,
2013-03-23 02:30:00,26.3,17.8,29.66,West,270,1.0,4.0,70,0.00,,,-99.99,WeatherLink 5.7,2013-03-23 06:30:00,
2013-03-23 02:40:00,26.3,18.2,29.66,West,270,1.0,4.0,71,0.00,,,-99.99,WeatherLink 5.7,2013-03-23 06:40:00,
2013-03-23 02:45:00,26.3,18.2,29.66,West,270,1.0,2.0,71,0.00,,,-99.99,WeatherLink 5.7,2013-03-23 06:45:00,
2013-03-23 02:55:00,26.3,18.2,29.66,West,270,2.0,9.0,71,0.00,,,-99.99,WeatherLink 5.7,2013-03-23 06:55:00,
2013-03-23 03:05:00,26.1,18.0,29.66,West,270,1.0,3.0,71,0.00,,,-99.99,WeatherLink 5.7,2013-03-23 07:05:00,
2013-03-23 03:15:00,25.8,17.7,29.66,North,-999,0.0,0.0,71,0.00,,,-99.99,WeatherLink 5.7,2013-03-23 07:15:00,
2013-03-23 03:25:00,25.6,17.5,29.66,North,-999,0.0,0.0,71,0.00,,,-99.99,WeatherLink 5.7,2013-03-23 07:25:00,
2013-03-23 03:30:00,25.4,17.3,29.65,West,270,0.0,1.0,71,0.00,,,-99.99,WeatherLink 5.7,2013-03-23 07:30:00,
2013-03-23 03:40:00,25.3,17.9,29.65,West,270,0.0,2.0,73,0.00,,,-99.99,WeatherLink 5.7,2013-03-23 07:40:00,
2013-03-23 03:55:00,24.7,17.6,29.65,North,-999,0.0,0.0,74,0.00,,,-99.99,WeatherLink 5.7,2013-03-23 07:55:00,
2013-03-23 04:05:00,24.4,17.6,29.65,North,-999,0.0,0.0,75,0.00,,,-99.99,WeatherLink 5.7,2013-03-23 08:05:00,
2013-03-23 04:15:00,24.4,17.6,29.65,North,-999,0.0,0.0,75,0.00,,,-99.99,WeatherLink 5.7,2013-03-23 08:15:00,
2013-03-23 04:20:00,24.2,17.4,29.65,North,-999,0.0,0.0,75,0.00,,,-99.99,WeatherLink 5.7,2013-03-23 08:20:00,
2013-03-23 04:30:00,24.4,17.6,29.65,West,270,0.0,2.0,75,0.00,,,-99.99,WeatherLink 5.7,2013-03-23 08:30:00,
2013-03-23 04:35:00,24.4,17.9,29.64,West,270,0.0,2.0,76,0.00,,,-99.99,WeatherLink 5.7,2013-03-23 08:35:00,
2013-03-23 04:45:00,24.1,17.6,29.64,North,-999,0.0,0.0,76,0.00,,,-99.99,WeatherLink 5.7,2013-03-23 08:45:00,
2013-03-23 04:55:00,24.1,17.9,29.64,North,-999,0.0,0.0,77,0.00,,,-99.99,WeatherLink 5.7,2013-03-23 08:55:00,
2013-03-23 05:05:00,23.8,17.9,29.64,West,270,1.0,4.0,78,0.00,,,-99.99,WeatherLink 5.7,2013-03-23 09:05:00,
2013-03-23 05:15:00,23.6,17.7,29.64,SSW,202,1.0,2.0,78,0.00,,,-99.99,WeatherLink 5.7,2013-03-23 09:15:00,
2013-03-23 05:25:00,23.6,18.0,29.64,North,-999,0.0,0.0,79,0.00,,,-99.99,WeatherLink 5.7,2013-03-23 09:25:00,
2013-03-23 05:30:00,23.6,18.0,29.65,SSW,202,0.0,1.0,79,0.00,,,-99.99,WeatherLink 5.7,2013-03-23 09:30:00,
2013-03-23 05:40:00,23.6,18.0,29.65,SSW,202,0.0,3.0,79,0.00,,,-99.99,WeatherLink 5.7,2013-03-23 09:40:00,
2013-03-23 05:50:00,23.5,18.2,29.64,SSW,202,0.0,2.0,80,0.00,,,-99.99,WeatherLink 5.7,2013-03-23 09:50:00,
2013-03-23 06:00:00,23.2,18.2,29.64,SSW,202,0.0,2.0,81,0.00,,,-99.99,WeatherLink 5.7,2013-03-23 10:00:00,
2013-03-23 06:05:00,23.0,18.0,29.64,North,-999,0.0,0.0,81,0.00,,,-99.99,WeatherLink 5.7,2013-03-23 10:05:00,
2013-03-23 06:15:00,23.0,18.3,29.64,SSW,202,0.0,2.0,82,0.00,,,-99.99,WeatherLink 5.7,2013-03-23 10:15:00,
2013-03-23 06:20:00,23.3,18.6,29.64,SSW,202,0.0,3.0,82,0.00,,,-99.99,WeatherLink 5.7,2013-03-23 10:20:00,
2013-03-23 06:30:00,23.5,18.5,29.64,SSW,202,0.0,3.0,81,0.00,,,-99.99,WeatherLink 5.7,2013-03-23 10:30:00,
2013-03-23 06:40:00,23.5,18.8,29.64,SSW,202,0.0,2.0,82,0.00,,,-99.99,WeatherLink 5.7,2013-03-23 10:40:00,
2013-03-23 06:50:00,23.5,18.8,29.64,SSW,202,0.0,1.0,82,0.00,,,-99.99,WeatherLink 5.7,2013-03-23 10:50:00,
2013-03-23 06:55:00,23.6,18.9,29.64,SSW,202,0.0,2.0,82,0.00,,,-99.99,WeatherLink 5.7,2013-03-23 10:55:00,
2013-03-23 07:05:00,24.4,19.7,29.63,SSW,202,1.0,3.0,82,0.00,,,-99.99,WeatherLink 5.7,2013-03-23 11:05:00,
2013-03-23 07:15:00,24.8,19.8,29.63,SSW,202,1.0,3.0,81,0.00,,,-99.99,WeatherLink 5.7,2013-03-23 11:15:00,
2013-03-23 07:25:00,26.0,20.4,29.62,West,270,2.0,6.0,79,0.00,,,-99.99,WeatherLink 5.7,2013-03-23 11:25:00,
2013-03-23 07:35:00,27.3,21.0,29.62,West,270,2.0,5.0,77,0.00,,,-99.99,WeatherLink 5.7,2013-03-23 11:35:00,
2013-03-23 07:45:00,28.7,21.5,29.62,WSW,247,1.0,4.0,74,0.00,,,-99.99,WeatherLink 5.7,2013-03-23 11:45:00,
2013-03-23 07:55:00,29.7,21.8,29.62,West,270,2.0,6.0,72,0.00,,,-99.99,WeatherLink 5.7,2013-03-23 11:55:00,
2013-03-23 08:00:00,30.9,22.3,29.62,WNW,292,2.0,8.0,70,0.00,,,-99.99,WeatherLink 5.7,2013-03-23 12:00:00,
2013-03-23 08:10:00,31.6,22.2,29.62,WSW,247,4.0,8.0,68,0.00,,,-99.99,WeatherLink 5.7,2013-03-23 12:10:00,
2013-03-23 08:20:00,32.8,22.7,29.63,West,270,2.0,5.0,66,0.00,,,-99.99,WeatherLink 5.7,2013-03-23 12:20:00,
2013-03-23 08:30:00,33.7,22.8,29.63,West,270,3.0,7.0,64,0.00,,,-99.99,WeatherLink 5.7,2013-03-23 12:30:00,
2013-03-23 08:40:00,34.9,23.2,29.63,West,270,3.0,7.0,62,0.00,,,-99.99,WeatherLink 5.7,2013-03-23 12:40:00,
2013-03-23 08:50:00,36.3,22.9,29.63,West,270,4.0,10.0,58,0.00,,,-99.99,WeatherLink 5.7,2013-03-23 12:50:00,
2013-03-23 08:55:00,37.8,23.5,29.63,WSW,247,4.0,8.0,56,0.00,,,-99.99,WeatherLink 5.7,2013-03-23 12:55:00,
2013-03-23 09:10:00,38.9,23.2,29.62,WSW,247,4.0,10.0,53,0.00,,,-99.99,WeatherLink 5.7,2013-03-23 13:10:00,
2013-03-23 09:20:00,40.3,23.6,29.62,West,270,3.0,6.0,51,0.00,,,-99.99,WeatherLink 5.7,2013-03-23 13:20:00,
2013-03-23 09:35:00,41.1,23.4,29.62,West,270,4.0,7.0,49,0.00,,,-99.99,WeatherLink 5.7,2013-03-23 13:35:00,
2013-03-23 09:45:00,41.3,22.6,29.62,West,270,6.0,12.0,47,0.00,,,-99.99,WeatherLink 5.7,2013-03-23 13:45:00,
2013-03-23 09:55:00,41.3,23.1,29.61,West,270,6.0,13.0,48,0.00,,,-99.99,WeatherLink 5.7,2013-03-23 13:55:00,
2013-03-23 10:10:00,41.6,23.8,29.62,WNW,292,4.0,10.0,49,0.00,,,-99.99,WeatherLink 5.7,2013-03-23 14:10:00,
2013-03-23 10:20:00,43.1,22.1,29.61,WSW,247,7.0,17.0,43,0.00,,,-99.99,WeatherLink 5.7,2013-03-23 14:20:00,
2013-03-23 10:30:00,43.5,21.9,29.61,NW,315,4.0,8.0,42,0.00,,,-99.99,WeatherLink 5.7,2013-03-23 14:30:00,
2013-03-23 10:40:00,43.3,22.8,29.61,WSW,247,5.0,13.0,44,0.00,,,-99.99,WeatherLink 5.7,2013-03-23 14:40:00,
2013-03-23 10:45:00,42.1,23.8,29.61,WSW,247,3.0,8.0,48,0.00,,,-99.99,WeatherLink 5.7,2013-03-23 14:45:00,
2013-03-23 10:55:00,41.3,21.5,29.61,West,270,5.0,12.0,45,0.00,,,-99.99,WeatherLink 5.7,2013-03-23 14:55:00,
2013-03-23 11:00:00,40.9,21.7,29.60,West,270,5.0,13.0,46,0.00,,,-99.99,WeatherLink 5.7,2013-03-23 15:00:00,
2013-03-23 11:11:00,40.1,20.4,29.60,West,270,6.0,19.0,45,0.00,,,-99.99,WeatherLink 5.7,2013-03-23 15:11:00,
2013-03-23 11:20:00,39.9,21.3,29.60,West,270,5.0,11.0,47,0.00,,,-99.99,WeatherLink 5.7,2013-03-23 15:20:00,
2013-03-23 11:30:00,40.9,21.2,29.60,West,270,4.0,8.0,45,0.00,,,-99.99,WeatherLink 5.7,2013-03-23 15:30:00,
2013-03-23 11:40:00,41.6,19.6,29.60,WSW,247,6.0,12.0,41,0.00,,,-99.99,WeatherLink 5.7,2013-03-23 15:40:00,
2013-03-23 11:50:00,41.8,20.9,29.59,West,270,4.0,11.0,43,0.00,,,-99.99,WeatherLink 5.7,2013-03-23 15:50:00,
2013-03-23 12:00:00,41.5,19.5,29.59,WSW,247,6.0,18.0,41,0.00,,,-99.99,WeatherLink 5.7,2013-03-23 16:00:00,
2013-03-23 12:05:00,42.3,20.8,29.59,WSW,247,5.0,10.0,42,0.00,,,-99.99,WeatherLink 5.7,2013-03-23 16:05:00,
2013-03-23 12:20:00,44.5,23.4,29.58,WSW,247,5.0,13.0,43,0.00,,,-99.99,WeatherLink 5.7,2013-03-23 16:20:00,
2013-03-23 12:30:00,43.8,21.0,29.58,West,270,6.0,13.0,40,0.00,,,-99.99,WeatherLink 5.7,2013-03-23 16:30:00,
2013-03-23 12:35:00,43.1,21.0,29.59,WNW,292,5.0,16.0,41,0.00,,,-99.99,WeatherLink 5.7,2013-03-23 16:35:00,
2013-03-23 12:50:00,42.8,20.7,29.59,WSW,247,5.0,13.0,41,0.00,,,-99.99,WeatherLink 5.7,2013-03-23 16:50:00,
2013-03-23 13:00:00,42.1,18.9,29.59,WNW,292,7.0,20.0,39,0.00,,,-99.99,WeatherLink 5.7,2013-03-23 17:00:00,
2013-03-23 13:10:00,41.3,19.9,29.58,WSW,247,4.0,11.0,42,0.00,,,-99.99,WeatherLink 5.7,2013-03-23 17:10:00,
2013-03-23 13:15:00,42.3,18.5,29.58,WSW,247,6.0,19.0,38,0.00,,,-99.99,WeatherLink 5.7,2013-03-23 17:15:00,
2013-03-23 13:25:00,42.3,19.7,29.58,West,270,6.0,13.0,40,0.00,,,-99.99,WeatherLink 5.7,2013-03-23 17:25:00,
2013-03-23 13:40:00,42.8,20.1,29.58,West,270,7.0,21.0,40,0.00,,,-99.99,WeatherLink 5.7,2013-03-23 17:40:00,
2013-03-23 13:45:00,42.5,16.7,29.58,West,270,7.0,14.0,35,0.00,,,-99.99,WeatherLink 5.7,2013-03-23 17:45:00,
2013-03-23 13:55:00,42.6,17.5,29.58,WSW,247,5.0,10.0,36,0.00,,,-99.99,WeatherLink 5.7,2013-03-23 17:55:00,
2013-03-23 14:05:00,42.6,17.5,29.57,WSW,247,7.0,16.0,36,0.00,,,-99.99,WeatherLink 5.7,2013-03-23 18:05:00,
2013-03-23 14:15:00,42.9,17.7,29.57,West,270,5.0,16.0,36,0.00,,,-99.99,WeatherLink 5.7,2013-03-23 18:15:00,
2013-03-23 14:25:00,43.1,19.2,29.57,WSW,247,6.0,14.0,38,0.00,,,-99.99,WeatherLink 5.7,2013-03-23 18:25:00,
2013-03-23 14:35:00,43.9,18.6,29.57,West,270,4.0,14.0,36,0.00,,,-99.99,WeatherLink 5.7,2013-03-23 18:35:00,
2013-03-23 14:50:00,43.9,18.0,29.57,West,270,5.0,16.0,35,0.00,,,-99.99,WeatherLink 5.7,2013-03-23 18:50:00,
2013-03-23 14:55:00,44.1,18.8,29.57,West,270,6.0,19.0,36,0.00,,,-99.99,WeatherLink 5.7,2013-03-23 18:55:00,
2013-03-23 15:15:00,43.9,17.3,29.57,West,270,6.0,13.0,34,0.00,,,-99.99,WeatherLink 5.7,2013-03-23 19:15:00,
2013-03-23 15:25:00,45.1,17.0,29.56,West,270,6.0,13.0,32,0.00,,,-99.99,WeatherLink 5.7,2013-03-23 19:25:00,
2013-03-23 15:35:00,45.5,17.3,29.56,West,270,8.0,20.0,32,0.00,,,-99.99,WeatherLink 5.7,2013-03-23 19:35:00,
2013-03-23 15:45:00,45.8,17.6,29.56,West,270,6.0,13.0,32,0.00,,,-99.99,WeatherLink 5.7,2013-03-23 19:45:00,
2013-03-23 15:55:00,45.5,16.6,29.56,West,270,7.0,12.0,31,0.00,,,-99.99,WeatherLink 5.7,2013-03-23 19:55:00,
2013-03-23 16:05:00,45.2,17.0,29.56,WSW,247,6.0,17.0,32,0.00,,,-99.99,WeatherLink 5.7,2013-03-23 20:05:00,
2013-03-23 16:15:00,44.2,17.6,29.56,West,270,8.0,24.0,34,0.00,,,-99.99,WeatherLink 5.7,2013-03-23 20:15:00,
2013-03-23 16:30:00,43.3,17.4,29.56,WSW,247,6.0,16.0,35,0.00,,,-99.99,WeatherLink 5.7,2013-03-23 20:30:00,
2013-03-23 16:35:00,42.5,17.4,29.56,West,270,7.0,12.0,36,0.00,,,-99.99,WeatherLink 5.7,2013-03-23 20:35:00,
2013-03-23 16:45:00,42.1,16.4,29.56,West,270,7.0,14.0,35,0.00,,,-99.99,WeatherLink 5.7,2013-03-23 20:45:00,
2013-03-23 17:00:00,41.5,17.7,29.57,WSW,247,7.0,16.0,38,0.00,,,-99.99,WeatherLink 5.7,2013-03-23 21:00:00,
2013-03-23 17:05:00,40.8,17.1,29.58,WSW,247,7.0,14.0,38,0.00,,,-99.99,WeatherLink 5.7,2013-03-23 21:05:00,
2013-03-23 17:10:00,40.3,16.7,29.58,WSW,247,6.0,16.0,38,0.00,,,-99.99,WeatherLink 5.7,2013-03-23 21:10:00,
2013-03-23 17:15:00,40.3,17.9,29.59,WSW,247,5.0,10.0,40,0.00,,,-99.99,WeatherLink 5.7,2013-03-23 21:15:00,
2013-03-23 17:25:00,40.3,15.4,29.59,West,270,6.0,18.0,36,0.00,,,-99.99,WeatherLink 5.7,2013-03-23 21:25:00,
2013-03-23 17:35:00,40.3,16.7,29.60,WSW,247,5.0,14.0,38,0.00,,,-99.99,WeatherLink 5.7,2013-03-23 21:35:00,
2013-03-23 17:50:00,40.1,17.7,29.60,WSW,247,7.0,17.0,40,0.00,,,-99.99,WeatherLink 5.7,2013-03-23 21:50:00,
2013-03-23 18:00:00,39.9,17.5,29.60,West,270,6.0,16.0,40,0.00,,,-99.99,WeatherLink 5.7,2013-03-23 22:00:00,
2013-03-23 18:10:00,39.6,17.2,29.61,West,270,7.0,17.0,40,0.00,,,-99.99,WeatherLink 5.7,2013-03-23 22:10:00,
2013-03-23 18:20:00,39.2,16.9,29.62,West,270,5.0,13.0,40,0.00,,,-99.99,WeatherLink 5.7,2013-03-23 22:20:00,
2013-03-23 18:35:00,38.8,17.1,29.62,West,270,6.0,10.0,41,0.00,,,-99.99,WeatherLink 5.7,2013-03-23 22:35:00,
2013-03-23 18:40:00,38.5,18.4,29.62,West,270,5.0,11.0,44,0.00,,,-99.99,WeatherLink 5.7,2013-03-23 22:40:00,
2013-03-23 18:50:00,38.3,18.8,29.63,West,270,6.0,16.0,45,0.00,,,-99.99,WeatherLink 5.7,2013-03-23 22:50:00,
2013-03-23 18:55:00,38.0,18.5,29.63,West,270,5.0,13.0,45,0.00,,,-99.99,WeatherLink 5.7,2013-03-23 22:55:00,
2013-03-23 19:00:00,37.6,17.1,29.64,WNW,292,6.0,16.0,43,0.00,,,-99.99,WeatherLink 5.7,2013-03-23 23:00:00,
2013-03-23 19:10:00,37.6,18.2,29.64,West,270,4.0,11.0,45,0.00,,,-99.99,WeatherLink 5.7,2013-03-23 23:10:00,
2013-03-23 19:20:00,37.3,18.4,29.65,West,270,4.0,8.0,46,0.00,,,-99.99,WeatherLink 5.7,2013-03-23 23:20:00,
2013-03-23 19:25:00,37.0,18.6,29.65,West,270,5.0,8.0,47,0.00,,,-99.99,WeatherLink 5.7,2013-03-23 23:25:00,
2013-03-23 19:35:00,36.8,18.4,29.65,NW,315,7.0,18.0,47,0.00,,,-99.99,WeatherLink 5.7,2013-03-23 23:35:00,
2013-03-23 19:50:00,36.5,19.1,29.66,West,270,4.0,8.0,49,0.00,,,-99.99,WeatherLink 5.7,2013-03-23 23:50:00,
2013-03-23 20:00:00,36.2,18.4,29.66,West,270,4.0,8.0,48,0.00,,,-99.99,WeatherLink 5.7,2013-03-24 00:00:00,
2013-03-23 20:05:00,36.0,18.7,29.67,WNW,292,4.0,12.0,49,0.00,,,-99.99,WeatherLink 5.7,2013-03-24 00:05:00,
2013-03-23 20:15:00,35.9,18.6,29.67,West,270,3.0,10.0,49,0.00,,,-99.99,WeatherLink 5.7,2013-03-24 00:15:00,
2013-03-23 20:30:00,35.8,18.5,29.67,WSW,247,2.0,7.0,49,0.00,,,-99.99,WeatherLink 5.7,2013-03-24 00:30:00,
2013-03-23 20:45:00,35.3,18.5,29.69,WSW,247,1.0,3.0,50,0.00,,,-99.99,WeatherLink 5.7,2013-03-24 00:45:00,
2013-03-23 20:55:00,35.2,18.9,29.70,WSW,247,1.0,6.0,51,0.00,,,-99.99,WeatherLink 5.7,2013-03-24 00:55:00,
2013-03-23 21:00:00,35.0,19.1,29.70,North,-999,0.0,0.0,52,0.00,,,-99.99,WeatherLink 5.7,2013-03-24 01:00:00,
2013-03-23 21:10:00,34.6,19.2,29.70,WNW,292,1.0,3.0,53,0.00,,,-99.99,WeatherLink 5.7,2013-03-24 01:10:00,
2013-03-23 21:25:00,34.0,18.6,29.70,West,270,0.0,1.0,53,0.00,,,-99.99,WeatherLink 5.7,2013-03-24 01:25:00,
2013-03-23 21:30:00,33.7,18.8,29.70,West,270,0.0,1.0,54,0.00,,,-99.99,WeatherLink 5.7,2013-03-24 01:30:00,
2013-03-23 21:40:00,33.4,18.5,29.70,West,270,0.0,2.0,54,0.00,,,-99.99,WeatherLink 5.7,2013-03-24 01:40:00,
2013-03-23 21:45:00,33.1,19.5,29.70,West,270,1.0,3.0,57,0.00,,,-99.99,WeatherLink 5.7,2013-03-24 01:45:00,
2013-03-23 21:55:00,32.8,19.2,29.70,West,270,2.0,3.0,57,0.00,,,-99.99,WeatherLink 5.7,2013-03-24 01:55:00,
2013-03-23 22:05:00,32.8,19.6,29.70,West,270,2.0,8.0,58,0.00,,,-99.99,WeatherLink 5.7,2013-03-24 02:05:00,
2013-03-23 22:15:00,32.9,19.3,29.70,WNW,292,2.0,6.0,57,0.00,,,-99.99,WeatherLink 5.7,2013-03-24 02:15:00,
2013-03-23 22:25:00,33.1,19.5,29.70,West,270,1.0,5.0,57,0.00,,,-99.99,WeatherLink 5.7,2013-03-24 02:25:00,
2013-03-23 22:35:00,33.1,19.9,29.70,West,270,2.0,5.0,58,0.00,,,-99.99,WeatherLink 5.7,2013-03-24 02:35:00,
2013-03-23 22:45:00,32.9,19.7,29.70,West,270,2.0,7.0,58,0.00,,,-99.99,WeatherLink 5.7,2013-03-24 02:45:00,
2013-03-23 22:55:00,32.9,19.3,29.71,West,270,1.0,5.0,57,0.00,,,-99.99,WeatherLink 5.7,2013-03-24 02:55:00,
2013-03-23 23:10:00,32.5,19.3,29.70,West,270,2.0,5.0,58,0.00,,,-99.99,WeatherLink 5.7,2013-03-24 03:10:00,
2013-03-23 23:25:00,32.1,19.8,29.70,West,270,2.0,5.0,60,0.00,,,-99.99,WeatherLink 5.7,2013-03-24 03:25:00,
2013-03-23 23:35:00,32.1,19.8,29.70,West,270,2.0,5.0,60,0.00,,,-99.99,WeatherLink 5.7,2013-03-24 03:35:00,
2013-03-23 23:40:00,31.9,19.6,29.70,West,270,2.0,3.0,60,0.00,,,-99.99,WeatherLink 5.7,2013-03-24 03:40:00,
2013-03-23 23:50:00,31.9,20.0,29.70,West,270,1.0,3.0,61,0.00,,,-99.99,WeatherLink 5.7,2013-03-24 03:50:00,